No.3tokuyomaru — JD3132 — position and weather

sailwx.info

Track history (hours):
 
Tides and Currents Weather Stations Pressure Air Temp Water Temp Dewpoint Dewpoint Depression Visibility Wind Speed Wind Dir Waves Ship Positions

No.3tokuyomaru

Last reported at 2016-Aug-27 23:06 UTC. Time now 2016-Aug-28 08:34 UTC.
Position N 35°55' E 140°41'.

Length 67 m; draft 4.6 m.

Type: Tanker. MMSI: 431002151.

Date/timePositionNaut miles runAvg speedWind from/ knotsBaromVisibWave heightAir tempDewpointWater temp
2016-Aug-27 23:06N 35°55' E 140°41'63 8.2
2016-Aug-27 15:28N 34°58' E 140°08'22 7.2
2016-Aug-27 12:25N 35°11' E 139°46'1012.0
2016-Aug-27 11:33N 35°21' E 139°42'1010.0
2016-Aug-27 10:33N 35°31' E 139°46'0 0.1
2016-Aug-27 09:21N 35°31' E 139°46'0 0.0
2016-Aug-27 08:33N 35°31' E 139°46'2 0.8
2016-Aug-27 06:33N 35°30' E 139°48'1 0.5
2016-Aug-27 04:33N 35°29' E 139°49'0 0.0
2016-Aug-27 03:33N 35°29' E 139°49'0 0.0
2016-Aug-27 02:33N 35°29' E 139°49'0 0.0
2016-Aug-27 01:33N 35°29' E 139°49'0 0.0
2016-Aug-27 00:33N 35°29' E 139°49'0 0.0
2016-Aug-26 23:33N 35°29' E 139°49'0 0.0
2016-Aug-26 22:33N 35°29' E 139°49'0 0.1
2016-Aug-26 21:33N 35°29' E 139°49'0 0.0
2016-Aug-26 20:33N 35°29' E 139°49'0 0.0
2016-Aug-26 19:33N 35°29' E 139°49'0 0.0
2016-Aug-26 18:33N 35°29' E 139°49'0 0.0
2016-Aug-26 17:33N 35°29' E 139°49'0 0.0
2016-Aug-26 16:33N 35°29' E 139°49'0 0.0
2016-Aug-26 15:33N 35°29' E 139°49'0 0.0
2016-Aug-26 14:33N 35°29' E 139°49'0 0.0
2016-Aug-26 13:33N 35°29' E 139°49'0 0.0
2016-Aug-26 12:33N 35°29' E 139°49'0 0.0
2016-Aug-26 11:33N 35°29' E 139°49'0 0.0
2016-Aug-26 10:33N 35°29' E 139°49'0 0.0
2016-Aug-26 09:33N 35°29' E 139°49'0 0.0
2016-Aug-26 08:33N 35°29' E 139°49'0 0.0
2016-Aug-26 07:30N 35°29' E 139°49'0 0.1
2016-Aug-26 06:33N 35°29' E 139°49'15 7.5
2016-Aug-26 04:33N 35°15' E 139°47'1111.1
2016-Aug-26 03:33N 35°07' E 139°37'2 0.0
2016-Aug-24 12:18N 35°09' E 139°37'27 8.4
2016-Aug-24 09:05N 34°58' E 140°07'6610.0
2016-Aug-24 02:29N 35°57' E 140°44'4 0.8
2016-Aug-23 21:30N 35°54' E 140°41'21 5.2
2016-Aug-23 17:31N 35°35' E 140°51'1212.4
2016-Aug-23 16:33N 35°26' E 140°41'1212.0
2016-Aug-23 15:32N 35°16' E 140°32'2512.8
2016-Aug-23 13:33N 34°59' E 140°09'20 9.7
2016-Aug-23 11:29N 35°00' E 139°44'1212.8
2016-Aug-23 10:33N 35°12' E 139°46'1211.8
2016-Aug-23 09:33N 35°23' E 139°42'1212.0
2016-Aug-23 08:33N 35°32' E 139°53'5 4.6
2016-Aug-23 07:33N 35°36' E 139°54'0 0.0
2016-Aug-23 06:34N 35°36' E 139°54'0 0.0
2016-Aug-23 05:31N 35°36' E 139°54'0 0.0
2016-Aug-23 04:28N 35°36' E 139°54'0 0.0
2016-Aug-23 03:31N 35°36' E 139°54'0 0.0
2016-Aug-23 02:30N 35°36' E 139°54'0 0.0
2016-Aug-23 01:31N 35°36' E 139°54'0 0.0
2016-Aug-23 00:31N 35°36' E 139°54'0 0.0
2016-Aug-22 23:33N 35°36' E 139°54'0 0.0
2016-Aug-22 22:28N 35°36' E 139°54'0 0.0
2016-Aug-22 21:31N 35°36' E 139°54'0 0.0
2016-Aug-22 20:33N 35°36' E 139°54'0 0.0
2016-Aug-22 19:34N 35°36' E 139°54'0 0.0
2016-Aug-22 18:31N 35°36' E 139°54'0 0.0
2016-Aug-22 17:33N 35°36' E 139°54'0 0.0
2016-Aug-22 16:34N 35°36' E 139°54'0 0.0
2016-Aug-22 15:31N 35°36' E 139°54'0 0.0
2016-Aug-22 14:34N 35°36' E 139°54'0 0.0
2016-Aug-22 13:33N 35°36' E 139°54'0 0.0
2016-Aug-22 12:33N 35°36' E 139°54'0 0.0
2016-Aug-22 11:30N 35°36' E 139°54'0 0.0
2016-Aug-22 10:33N 35°36' E 139°54'0 0.0
2016-Aug-22 09:34N 35°36' E 139°54'0 0.0
2016-Aug-22 08:33N 35°36' E 139°54'0 0.0
2016-Aug-22 07:32N 35°36' E 139°54'0 0.0
2016-Aug-22 06:32N 35°36' E 139°54'0 0.1
2016-Aug-22 05:34N 35°36' E 139°54'0 0.0
2016-Aug-22 04:32N 35°36' E 139°54'0 0.0
2016-Aug-22 03:33N 35°36' E 139°54'0 0.0
2016-Aug-22 02:33N 35°36' E 139°54'0 0.0
2016-Aug-22 01:33N 35°36' E 139°54'0 0.0
2016-Aug-22 00:31N 35°36' E 139°54'0 0.0
2016-Aug-21 23:31N 35°36' E 139°54'0 0.0
2016-Aug-21 22:34N 35°36' E 139°54'0 0.0
2016-Aug-21 21:33N 35°36' E 139°54'0 0.0
2016-Aug-21 20:33N 35°36' E 139°54'0 0.1
2016-Aug-21 19:34N 35°36' E 139°54'0 0.0
2016-Aug-21 18:31N 35°36' E 139°54'0 0.0
2016-Aug-21 17:31N 35°36' E 139°54'0 0.0
2016-Aug-21 16:33N 35°36' E 139°54'0 0.1
2016-Aug-21 15:33N 35°36' E 139°54'0 0.0
2016-Aug-21 14:31N 35°36' E 139°54'0 0.0
2016-Aug-21 13:33N 35°36' E 139°54'0 0.0
2016-Aug-21 12:33N 35°36' E 139°54'0 0.0
2016-Aug-21 11:32N 35°36' E 139°54'0 0.0
2016-Aug-21 10:33N 35°36' E 139°54'0 0.0
2016-Aug-21 09:33N 35°36' E 139°54'0 0.0
2016-Aug-21 08:33N 35°36' E 139°54'0 0.0
2016-Aug-21 07:31N 35°36' E 139°54'0 0.0
2016-Aug-21 06:33N 35°36' E 139°54'9 8.5
2016-Aug-21 05:34N 35°31' E 139°46'0 0.1
2016-Aug-21 04:26N 35°31' E 139°46'0 0.0
2016-Aug-21 03:26N 35°31' E 139°46'0 0.0
2016-Aug-20 23:26N 35°31' E 139°46'3 2.8
2016-Aug-20 22:31N 35°29' E 139°49'0 0.1
2016-Aug-20 21:31N 35°29' E 139°49'0 0.0
2016-Aug-20 20:28N 35°29' E 139°49'0 0.0
2016-Aug-20 19:31N 35°29' E 139°49'0 0.1
2016-Aug-20 18:31N 35°29' E 139°49'0 0.0
2016-Aug-20 17:31N 35°29' E 139°49'0 0.0
2016-Aug-20 16:31N 35°29' E 139°49'0 0.0
2016-Aug-20 15:31N 35°29' E 139°49'0 0.0
2016-Aug-20 14:31N 35°29' E 139°49'5 5.5
2016-Aug-20 13:33N 35°24' E 139°46'1110.6
2016-Aug-20 12:33N 35°14' E 139°47'22 9.5
2016-Aug-20 10:14N 34°54' E 139°57'1313.0
2016-Aug-20 09:13N 35°01' E 140°11'2112.2
2016-Aug-20 07:29N 35°14' E 140°31'41 8.4
2016-Aug-20 02:33N 35°55' E 140°41'1 0.2
2016-Aug-19 21:28N 35°56' E 140°42'2 1.1
2016-Aug-19 19:33N 35°58' E 140°43'30 8.8
2016-Aug-19 16:08N 35°28' E 140°42'3810.5
2016-Aug-19 12:30N 35°02' E 140°07'1110.7
2016-Aug-19 11:28N 34°54' E 139°58'17 8.2
2016-Aug-19 09:24N 35°08' E 139°45'1212.2
2016-Aug-19 08:27N 35°19' E 139°43'1111.9
2016-Aug-19 07:34N 35°29' E 139°47'2 2.1
2016-Aug-19 06:31N 35°30' E 139°45'0 0.0
2016-Aug-19 05:28N 35°30' E 139°45'0 0.0
2016-Aug-19 04:28N 35°30' E 139°45'0 0.0
2016-Aug-19 03:31N 35°30' E 139°45'0 0.0
2016-Aug-19 02:33N 35°30' E 139°45'0 0.0
2016-Aug-19 01:33N 35°30' E 139°45'0 0.0
2016-Aug-19 00:24N 35°30' E 139°45'1 0.8
2016-Aug-18 23:34N 35°30' E 139°46'3 2.7
2016-Aug-18 22:32N 35°29' E 139°49'0 0.0
2016-Aug-18 21:29N 35°29' E 139°49'0 0.1
2016-Aug-18 20:32N 35°29' E 139°49'0 0.0
2016-Aug-18 19:32N 35°29' E 139°49'0 0.1
2016-Aug-18 18:32N 35°29' E 139°49'0 0.0
2016-Aug-18 17:29N 35°29' E 139°49'0 0.0
2016-Aug-18 16:32N 35°29' E 139°49'0 0.0
2016-Aug-18 15:32N 35°29' E 139°49'0 0.0
2016-Aug-18 14:32N 35°29' E 139°49'0 0.0
2016-Aug-18 13:32N 35°29' E 139°49'0 0.0
2016-Aug-18 12:32N 35°29' E 139°49'0 0.0
2016-Aug-18 11:32N 35°29' E 139°49'7 7.6
2016-Aug-18 10:33N 35°22' E 139°45'1211.5
2016-Aug-18 09:32N 35°11' E 139°47'1412.7
2016-Aug-18 08:28N 34°57' E 139°44'1110.3
2016-Aug-18 07:23N 34°54' E 139°57'1112.0
2016-Aug-18 06:27N 34°60' E 140°09'  
Track history (hours):
 
Tides and Currents Weather Stations Pressure Air Temp Water Temp Dewpoint Dewpoint Depression Visibility Wind Speed Wind Dir Waves Ship Positions

No.3tokuyomaru

Last reported at 2016-Aug-27 23:06 UTC. Time now 2016-Aug-28 08:34 UTC.
Position N 35°55' E 140°41'.

Length 67 m; draft 4.6 m.

Type: Tanker. MMSI: 431002151.

Date/timePositionNaut miles runAvg speedWind from/ knotsBaromVisibWave heightAir tempDewpointWater temp
2016-Aug-27 23:06N 35°55' E 140°41'63 8.2
2016-Aug-27 15:28N 34°58' E 140°08'22 7.2
2016-Aug-27 12:25N 35°11' E 139°46'1012.0
2016-Aug-27 11:33N 35°21' E 139°42'1010.0
2016-Aug-27 10:33N 35°31' E 139°46'0 0.1
2016-Aug-27 09:21N 35°31' E 139°46'0 0.0
2016-Aug-27 08:33N 35°31' E 139°46'2 0.8
2016-Aug-27 06:33N 35°30' E 139°48'1 0.5
2016-Aug-27 04:33N 35°29' E 139°49'0 0.0
2016-Aug-27 03:33N 35°29' E 139°49'0 0.0
2016-Aug-27 02:33N 35°29' E 139°49'0 0.0
2016-Aug-27 01:33N 35°29' E 139°49'0 0.0
2016-Aug-27 00:33N 35°29' E 139°49'0 0.0
2016-Aug-26 23:33N 35°29' E 139°49'0 0.0
2016-Aug-26 22:33N 35°29' E 139°49'0 0.1
2016-Aug-26 21:33N 35°29' E 139°49'0 0.0
2016-Aug-26 20:33N 35°29' E 139°49'0 0.0
2016-Aug-26 19:33N 35°29' E 139°49'0 0.0
2016-Aug-26 18:33N 35°29' E 139°49'0 0.0
2016-Aug-26 17:33N 35°29' E 139°49'0 0.0
2016-Aug-26 16:33N 35°29' E 139°49'0 0.0
2016-Aug-26 15:33N 35°29' E 139°49'0 0.0
2016-Aug-26 14:33N 35°29' E 139°49'0 0.0
2016-Aug-26 13:33N 35°29' E 139°49'0 0.0
2016-Aug-26 12:33N 35°29' E 139°49'0 0.0
2016-Aug-26 11:33N 35°29' E 139°49'0 0.0
2016-Aug-26 10:33N 35°29' E 139°49'0 0.0
2016-Aug-26 09:33N 35°29' E 139°49'0 0.0
2016-Aug-26 08:33N 35°29' E 139°49'0 0.0
2016-Aug-26 07:30N 35°29' E 139°49'0 0.1
2016-Aug-26 06:33N 35°29' E 139°49'15 7.5
2016-Aug-26 04:33N 35°15' E 139°47'1111.1
2016-Aug-26 03:33N 35°07' E 139°37'2 0.0
2016-Aug-24 12:18N 35°09' E 139°37'27 8.4
2016-Aug-24 09:05N 34°58' E 140°07'6610.0
2016-Aug-24 02:29N 35°57' E 140°44'4 0.8
2016-Aug-23 21:30N 35°54' E 140°41'21 5.2
2016-Aug-23 17:31N 35°35' E 140°51'1212.4
2016-Aug-23 16:33N 35°26' E 140°41'1212.0
2016-Aug-23 15:32N 35°16' E 140°32'2512.8
2016-Aug-23 13:33N 34°59' E 140°09'20 9.7
2016-Aug-23 11:29N 35°00' E 139°44'1212.8
2016-Aug-23 10:33N 35°12' E 139°46'1211.8
2016-Aug-23 09:33N 35°23' E 139°42'1212.0
2016-Aug-23 08:33N 35°32' E 139°53'5 4.6
2016-Aug-23 07:33N 35°36' E 139°54'0 0.0
2016-Aug-23 06:34N 35°36' E 139°54'0 0.0
2016-Aug-23 05:31N 35°36' E 139°54'0 0.0
2016-Aug-23 04:28N 35°36' E 139°54'0 0.0
2016-Aug-23 03:31N 35°36' E 139°54'0 0.0
2016-Aug-23 02:30N 35°36' E 139°54'0 0.0
2016-Aug-23 01:31N 35°36' E 139°54'0 0.0
2016-Aug-23 00:31N 35°36' E 139°54'0 0.0
2016-Aug-22 23:33N 35°36' E 139°54'0 0.0
2016-Aug-22 22:28N 35°36' E 139°54'0 0.0
2016-Aug-22 21:31N 35°36' E 139°54'0 0.0
2016-Aug-22 20:33N 35°36' E 139°54'0 0.0
2016-Aug-22 19:34N 35°36' E 139°54'0 0.0
2016-Aug-22 18:31N 35°36' E 139°54'0 0.0
2016-Aug-22 17:33N 35°36' E 139°54'0 0.0
2016-Aug-22 16:34N 35°36' E 139°54'0 0.0
2016-Aug-22 15:31N 35°36' E 139°54'0 0.0
2016-Aug-22 14:34N 35°36' E 139°54'0 0.0
2016-Aug-22 13:33N 35°36' E 139°54'0 0.0
2016-Aug-22 12:33N 35°36' E 139°54'0 0.0
2016-Aug-22 11:30N 35°36' E 139°54'0 0.0
2016-Aug-22 10:33N 35°36' E 139°54'0 0.0
2016-Aug-22 09:34N 35°36' E 139°54'0 0.0
2016-Aug-22 08:33N 35°36' E 139°54'0 0.0
2016-Aug-22 07:32N 35°36' E 139°54'0 0.0
2016-Aug-22 06:32N 35°36' E 139°54'0 0.1
2016-Aug-22 05:34N 35°36' E 139°54'0 0.0
2016-Aug-22 04:32N 35°36' E 139°54'0 0.0
2016-Aug-22 03:33N 35°36' E 139°54'0 0.0
2016-Aug-22 02:33N 35°36' E 139°54'0 0.0
2016-Aug-22 01:33N 35°36' E 139°54'0 0.0
2016-Aug-22 00:31N 35°36' E 139°54'0 0.0
2016-Aug-21 23:31N 35°36' E 139°54'0 0.0
2016-Aug-21 22:34N 35°36' E 139°54'0 0.0
2016-Aug-21 21:33N 35°36' E 139°54'0 0.0
2016-Aug-21 20:33N 35°36' E 139°54'0 0.1
2016-Aug-21 19:34N 35°36' E 139°54'0 0.0
2016-Aug-21 18:31N 35°36' E 139°54'0 0.0
2016-Aug-21 17:31N 35°36' E 139°54'0 0.0
2016-Aug-21 16:33N 35°36' E 139°54'0 0.1
2016-Aug-21 15:33N 35°36' E 139°54'0 0.0
2016-Aug-21 14:31N 35°36' E 139°54'0 0.0
2016-Aug-21 13:33N 35°36' E 139°54'0 0.0
2016-Aug-21 12:33N 35°36' E 139°54'0 0.0
2016-Aug-21 11:32N 35°36' E 139°54'0 0.0
2016-Aug-21 10:33N 35°36' E 139°54'0 0.0
2016-Aug-21 09:33N 35°36' E 139°54'0 0.0
2016-Aug-21 08:33N 35°36' E 139°54'0 0.0
2016-Aug-21 07:31N 35°36' E 139°54'0 0.0
2016-Aug-21 06:33N 35°36' E 139°54'9 8.5
2016-Aug-21 05:34N 35°31' E 139°46'0 0.1
2016-Aug-21 04:26N 35°31' E 139°46'0 0.0
2016-Aug-21 03:26N 35°31' E 139°46'0 0.0
2016-Aug-20 23:26N 35°31' E 139°46'3 2.8
2016-Aug-20 22:31N 35°29' E 139°49'0 0.1
2016-Aug-20 21:31N 35°29' E 139°49'0 0.0
2016-Aug-20 20:28N 35°29' E 139°49'0 0.0
2016-Aug-20 19:31N 35°29' E 139°49'0 0.1
2016-Aug-20 18:31N 35°29' E 139°49'0 0.0
2016-Aug-20 17:31N 35°29' E 139°49'0 0.0
2016-Aug-20 16:31N 35°29' E 139°49'0 0.0
2016-Aug-20 15:31N 35°29' E 139°49'0 0.0
2016-Aug-20 14:31N 35°29' E 139°49'5 5.5
2016-Aug-20 13:33N 35°24' E 139°46'1110.6
2016-Aug-20 12:33N 35°14' E 139°47'22 9.5
2016-Aug-20 10:14N 34°54' E 139°57'1313.0
2016-Aug-20 09:13N 35°01' E 140°11'2112.2
2016-Aug-20 07:29N 35°14' E 140°31'41 8.4
2016-Aug-20 02:33N 35°55' E 140°41'1 0.2
2016-Aug-19 21:28N 35°56' E 140°42'2 1.1
2016-Aug-19 19:33N 35°58' E 140°43'30 8.8
2016-Aug-19 16:08N 35°28' E 140°42'3810.5
2016-Aug-19 12:30N 35°02' E 140°07'1110.7
2016-Aug-19 11:28N 34°54' E 139°58'17 8.2
2016-Aug-19 09:24N 35°08' E 139°45'1212.2
2016-Aug-19 08:27N 35°19' E 139°43'1111.9
2016-Aug-19 07:34N 35°29' E 139°47'2 2.1
2016-Aug-19 06:31N 35°30' E 139°45'0 0.0
2016-Aug-19 05:28N 35°30' E 139°45'0 0.0
2016-Aug-19 04:28N 35°30' E 139°45'0 0.0
2016-Aug-19 03:31N 35°30' E 139°45'0 0.0
2016-Aug-19 02:33N 35°30' E 139°45'0 0.0
2016-Aug-19 01:33N 35°30' E 139°45'0 0.0
2016-Aug-19 00:24N 35°30' E 139°45'1 0.8
2016-Aug-18 23:34N 35°30' E 139°46'3 2.7
2016-Aug-18 22:32N 35°29' E 139°49'0 0.0
2016-Aug-18 21:29N 35°29' E 139°49'0 0.1
2016-Aug-18 20:32N 35°29' E 139°49'0 0.0
2016-Aug-18 19:32N 35°29' E 139°49'0 0.1
2016-Aug-18 18:32N 35°29' E 139°49'0 0.0
2016-Aug-18 17:29N 35°29' E 139°49'0 0.0
2016-Aug-18 16:32N 35°29' E 139°49'0 0.0
2016-Aug-18 15:32N 35°29' E 139°49'0 0.0
2016-Aug-18 14:32N 35°29' E 139°49'0 0.0
2016-Aug-18 13:32N 35°29' E 139°49'0 0.0
2016-Aug-18 12:32N 35°29' E 139°49'0 0.0
2016-Aug-18 11:32N 35°29' E 139°49'7 7.6
2016-Aug-18 10:33N 35°22' E 139°45'1211.5
2016-Aug-18 09:32N 35°11' E 139°47'1412.7
2016-Aug-18 08:28N 34°57' E 139°44'1110.3
2016-Aug-18 07:23N 34°54' E 139°57'1112.0
2016-Aug-18 06:27N 34°60' E 140°09'  

Dump ship's entire track history